sensor_id;sensor_type;location;lat;lon;timestamp;temperature;humidity
9847;DHT22;4962;50.084;8.794;2022-07-06T00:01:55;18.70;83.00
9847;DHT22;4962;50.084;8.794;2022-07-06T00:04:22;18.60;83.00
9847;DHT22;4962;50.084;8.794;2022-07-06T00:06:49;18.60;83.30
9847;DHT22;4962;50.084;8.794;2022-07-06T00:09:16;18.60;83.40
9847;DHT22;4962;50.084;8.794;2022-07-06T00:11:43;18.60;83.40
9847;DHT22;4962;50.084;8.794;2022-07-06T00:14:12;18.60;83.20
9847;DHT22;4962;50.084;8.794;2022-07-06T00:16:39;18.50;83.00
9847;DHT22;4962;50.084;8.794;2022-07-06T00:19:06;18.50;83.10
9847;DHT22;4962;50.084;8.794;2022-07-06T00:21:33;18.50;83.40
9847;DHT22;4962;50.084;8.794;2022-07-06T00:24:00;18.50;83.40
9847;DHT22;4962;50.084;8.794;2022-07-06T00:26:27;18.50;83.60
9847;DHT22;4962;50.084;8.794;2022-07-06T00:28:54;18.50;83.70
9847;DHT22;4962;50.084;8.794;2022-07-06T00:31:22;18.50;83.80
9847;DHT22;4962;50.084;8.794;2022-07-06T00:33:49;18.50;84.00
9847;DHT22;4962;50.084;8.794;2022-07-06T00:36:16;18.50;84.00
9847;DHT22;4962;50.084;8.794;2022-07-06T00:38:43;18.50;84.20
9847;DHT22;4962;50.084;8.794;2022-07-06T00:41:11;18.50;84.30
9847;DHT22;4962;50.084;8.794;2022-07-06T00:43:52;18.50;84.40
9847;DHT22;4962;50.084;8.794;2022-07-06T00:46:23;18.50;84.70
9847;DHT22;4962;50.084;8.794;2022-07-06T00:48:52;18.50;84.90
9847;DHT22;4962;50.084;8.794;2022-07-06T00:51:19;18.50;85.00
9847;DHT22;4962;50.084;8.794;2022-07-06T00:53:49;18.50;85.20
9847;DHT22;4962;50.084;8.794;2022-07-06T00:56:16;18.50;85.70
9847;DHT22;4962;50.084;8.794;2022-07-06T00:58:43;18.50;86.10
9847;DHT22;4962;50.084;8.794;2022-07-06T01:01:10;18.50;86.40
9847;DHT22;4962;50.084;8.794;2022-07-06T01:03:39;18.40;86.70
9847;DHT22;4962;50.084;8.794;2022-07-06T01:06:06;18.40;87.20
9847;DHT22;4962;50.084;8.794;2022-07-06T01:08:33;18.40;87.90
9847;DHT22;4962;50.084;8.794;2022-07-06T01:11:00;18.40;88.50
9847;DHT22;4962;50.084;8.794;2022-07-06T01:13:30;18.40;89.10
9847;DHT22;4962;50.084;8.794;2022-07-06T01:15:57;18.40;89.70
9847;DHT22;4962;50.084;8.794;2022-07-06T01:18:25;18.40;90.10
9847;DHT22;4962;50.084;8.794;2022-07-06T01:21:06;18.30;90.20
9847;DHT22;4962;50.084;8.794;2022-07-06T01:23:33;18.30;90.50
9847;DHT22;4962;50.084;8.794;2022-07-06T01:26:04;18.30;90.50
9847;DHT22;4962;50.084;8.794;2022-07-06T01:28:31;18.30;90.80
9847;DHT22;4962;50.084;8.794;2022-07-06T01:30:58;18.20;90.90
9847;DHT22;4962;50.084;8.794;2022-07-06T01:33:25;18.20;90.90
9847;DHT22;4962;50.084;8.794;2022-07-06T01:35:53;18.10;91.00
9847;DHT22;4962;50.084;8.794;2022-07-06T01:38:20;18.10;91.20
9847;DHT22;4962;50.084;8.794;2022-07-06T01:40:49;18.10;91.70
9847;DHT22;4962;50.084;8.794;2022-07-06T01:43:16;18.00;91.60
9847;DHT22;4962;50.084;8.794;2022-07-06T01:45:43;18.00;91.80
9847;DHT22;4962;50.084;8.794;2022-07-06T01:48:10;17.90;92.10
9847;DHT22;4962;50.084;8.794;2022-07-06T01:50:37;17.90;92.40
9847;DHT22;4962;50.084;8.794;2022-07-06T01:53:05;17.90;92.80
9847;DHT22;4962;50.084;8.794;2022-07-06T01:55:32;17.80;93.00
9847;DHT22;4962;50.084;8.794;2022-07-06T01:57:59;17.80;93.30
9847;DHT22;4962;50.084;8.794;2022-07-06T02:00:26;17.80;93.70
9847;DHT22;4962;50.084;8.794;2022-07-06T02:02:53;17.70;93.90
9847;DHT22;4962;50.084;8.794;2022-07-06T02:05:20;17.70;94.10
9847;DHT22;4962;50.084;8.794;2022-07-06T02:07:47;17.70;94.40
9847;DHT22;4962;50.084;8.794;2022-07-06T02:10:15;17.70;94.80
9847;DHT22;4962;50.084;8.794;2022-07-06T02:12:42;17.70;95.40
9847;DHT22;4962;50.084;8.794;2022-07-06T02:15:09;17.60;95.10
9847;DHT22;4962;50.084;8.794;2022-07-06T02:17:36;17.60;95.50
9847;DHT22;4962;50.084;8.794;2022-07-06T02:20:04;17.50;95.70
9847;DHT22;4962;50.084;8.794;2022-07-06T02:22:31;17.50;96.00
9847;DHT22;4962;50.084;8.794;2022-07-06T02:24:59;17.50;96.20
9847;DHT22;4962;50.084;8.794;2022-07-06T02:27:27;17.50;96.60
9847;DHT22;4962;50.084;8.794;2022-07-06T02:29:54;17.50;96.80
9847;DHT22;4962;50.084;8.794;2022-07-06T02:32:21;17.40;97.10
9847;DHT22;4962;50.084;8.794;2022-07-06T02:34:48;17.40;97.30
9847;DHT22;4962;50.084;8.794;2022-07-06T02:37:15;17.40;97.60
9847;DHT22;4962;50.084;8.794;2022-07-06T02:39:41;17.40;97.80
9847;DHT22;4962;50.084;8.794;2022-07-06T02:42:08;17.40;98.40
9847;DHT22;4962;50.084;8.794;2022-07-06T02:44:37;17.30;98.40
9847;DHT22;4962;50.084;8.794;2022-07-06T02:47:04;17.30;98.70
9847;DHT22;4962;50.084;8.794;2022-07-06T02:49:31;17.30;99.00
9847;DHT22;4962;50.084;8.794;2022-07-06T02:51:57;17.30;99.20
9847;DHT22;4962;50.084;8.794;2022-07-06T02:54:24;17.30;99.40
9847;DHT22;4962;50.084;8.794;2022-07-06T02:56:51;17.30;99.60
9847;DHT22;4962;50.084;8.794;2022-07-06T02:59:19;17.30;99.70
9847;DHT22;4962;50.084;8.794;2022-07-06T03:01:47;17.20;99.90
9847;DHT22;4962;50.084;8.794;2022-07-06T03:04:14;17.20;99.90
9847;DHT22;4962;50.084;8.794;2022-07-06T03:06:41;17.20;99.90
9847;DHT22;4962;50.084;8.794;2022-07-06T03:09:08;17.20;99.90
9847;DHT22;4962;50.084;8.794;2022-07-06T03:11:35;17.10;99.90
9847;DHT22;4962;50.084;8.794;2022-07-06T03:14:02;17.10;99.90
9847;DHT22;4962;50.084;8.794;2022-07-06T03:16:29;17.10;99.90
9847;DHT22;4962;50.084;8.794;2022-07-06T03:18:58;17.10;99.90
9847;DHT22;4962;50.084;8.794;2022-07-06T03:21:25;17.10;99.90
9847;DHT22;4962;50.084;8.794;2022-07-06T03:23:52;17.10;99.90
9847;DHT22;4962;50.084;8.794;2022-07-06T03:26:19;17.10;99.90
9847;DHT22;4962;50.084;8.794;2022-07-06T03:28:46;17.10;99.90
9847;DHT22;4962;50.084;8.794;2022-07-06T03:31:12;17.10;99.90
9847;DHT22;4962;50.084;8.794;2022-07-06T03:33:39;17.10;99.90
9847;DHT22;4962;50.084;8.794;2022-07-06T03:36:08;17.10;99.90
9847;DHT22;4962;50.084;8.794;2022-07-06T03:38:35;17.10;99.90
9847;DHT22;4962;50.084;8.794;2022-07-06T03:41:03;17.20;99.90
9847;DHT22;4962;50.084;8.794;2022-07-06T03:43:30;17.20;99.90
9847;DHT22;4962;50.084;8.794;2022-07-06T03:45:57;17.20;99.90
9847;DHT22;4962;50.084;8.794;2022-07-06T03:48:24;17.20;99.90
9847;DHT22;4962;50.084;8.794;2022-07-06T03:50:51;17.20;99.90
9847;DHT22;4962;50.084;8.794;2022-07-06T03:53:20;17.20;99.90
9847;DHT22;4962;50.084;8.794;2022-07-06T03:55:47;17.20;99.90
9847;DHT22;4962;50.084;8.794;2022-07-06T03:58:34;17.20;99.90
9847;DHT22;4962;50.084;8.794;2022-07-06T04:01:01;17.20;99.90
9847;DHT22;4962;50.084;8.794;2022-07-06T04:03:28;17.20;99.90
9847;DHT22;4962;50.084;8.794;2022-07-06T04:05:55;17.30;99.90
9847;DHT22;4962;50.084;8.794;2022-07-06T04:08:24;17.30;99.90
9847;DHT22;4962;50.084;8.794;2022-07-06T04:10:51;17.30;99.90
9847;DHT22;4962;50.084;8.794;2022-07-06T04:13:17;17.30;99.90
9847;DHT22;4962;50.084;8.794;2022-07-06T04:15:44;17.40;99.90
9847;DHT22;4962;50.084;8.794;2022-07-06T04:18:11;17.40;99.90
9847;DHT22;4962;50.084;8.794;2022-07-06T04:20:38;17.40;99.90
9847;DHT22;4962;50.084;8.794;2022-07-06T04:23:05;17.50;99.90
9847;DHT22;4962;50.084;8.794;2022-07-06T04:25:34;17.50;99.90
9847;DHT22;4962;50.084;8.794;2022-07-06T04:28:01;17.50;99.90
9847;DHT22;4962;50.084;8.794;2022-07-06T04:30:28;17.50;99.90
9847;DHT22;4962;50.084;8.794;2022-07-06T04:32:55;17.50;99.90
9847;DHT22;4962;50.084;8.794;2022-07-06T04:35:22;17.60;99.90
9847;DHT22;4962;50.084;8.794;2022-07-06T04:37:49;17.60;99.90
9847;DHT22;4962;50.084;8.794;2022-07-06T04:40:16;17.60;99.90
9847;DHT22;4962;50.084;8.794;2022-07-06T04:42:44;17.60;99.90
9847;DHT22;4962;50.084;8.794;2022-07-06T04:45:12;17.70;99.90
9847;DHT22;4962;50.084;8.794;2022-07-06T04:47:39;17.80;99.90
9847;DHT22;4962;50.084;8.794;2022-07-06T04:50:07;17.80;99.90
9847;DHT22;4962;50.084;8.794;2022-07-06T04:52:34;17.90;99.90
9847;DHT22;4962;50.084;8.794;2022-07-06T04:55:01;18.00;99.90
9847;DHT22;4962;50.084;8.794;2022-07-06T04:57:30;18.40;99.90
9847;DHT22;4962;50.084;8.794;2022-07-06T04:59:58;18.80;99.90
9847;DHT22;4962;50.084;8.794;2022-07-06T05:02:25;19.40;99.90
9847;DHT22;4962;50.084;8.794;2022-07-06T05:04:52;20.00;99.90
9847;DHT22;4962;50.084;8.794;2022-07-06T05:07:19;20.60;99.90
9847;DHT22;4962;50.084;8.794;2022-07-06T05:09:46;21.20;99.90
9847;DHT22;4962;50.084;8.794;2022-07-06T05:12:15;21.70;99.90
9847;DHT22;4962;50.084;8.794;2022-07-06T05:14:42;22.20;98.50
9847;DHT22;4962;50.084;8.794;2022-07-06T05:17:11;22.60;96.50
9847;DHT22;4962;50.084;8.794;2022-07-06T05:19:40;23.10;94.90
9847;DHT22;4962;50.084;8.794;2022-07-06T05:22:08;23.50;93.20
9847;DHT22;4962;50.084;8.794;2022-07-06T05:24:35;23.80;91.60
9847;DHT22;4962;50.084;8.794;2022-07-06T05:27:02;24.20;90.80
9847;DHT22;4962;50.084;8.794;2022-07-06T05:29:29;24.50;89.60
9847;DHT22;4962;50.084;8.794;2022-07-06T05:31:56;24.80;87.80
9847;DHT22;4962;50.084;8.794;2022-07-06T05:34:26;25.00;84.60
9847;DHT22;4962;50.084;8.794;2022-07-06T05:36:53;25.10;83.50
9847;DHT22;4962;50.084;8.794;2022-07-06T05:39:20;25.30;84.40
9847;DHT22;4962;50.084;8.794;2022-07-06T05:41:48;25.60;82.50
9847;DHT22;4962;50.084;8.794;2022-07-06T05:44:15;26.00;81.30
9847;DHT22;4962;50.084;8.794;2022-07-06T05:46:42;26.40;79.90
9847;DHT22;4962;50.084;8.794;2022-07-06T05:49:09;26.80;78.50
9847;DHT22;4962;50.084;8.794;2022-07-06T05:51:55;27.30;77.60
9847;DHT22;4962;50.084;8.794;2022-07-06T05:54:22;27.80;75.70
9847;DHT22;4962;50.084;8.794;2022-07-06T05:56:51;28.30;74.00
9847;DHT22;4962;50.084;8.794;2022-07-06T05:59:18;28.70;72.20
9847;DHT22;4962;50.084;8.794;2022-07-06T06:01:45;29.20;70.50
9847;DHT22;4962;50.084;8.794;2022-07-06T06:04:12;29.70;68.60
9847;DHT22;4962;50.084;8.794;2022-07-06T06:06:39;30.20;65.40
9847;DHT22;4962;50.084;8.794;2022-07-06T06:09:08;30.30;61.70
9847;DHT22;4962;50.084;8.794;2022-07-06T06:11:35;30.20;59.30
9847;DHT22;4962;50.084;8.794;2022-07-06T06:14:10;29.90;58.20
9847;DHT22;4962;50.084;8.794;2022-07-06T06:16:37;29.40;57.60
9847;DHT22;4962;50.084;8.794;2022-07-06T06:19:04;29.00;57.40
9847;DHT22;4962;50.084;8.794;2022-07-06T06:21:34;28.50;58.00
9847;DHT22;4962;50.084;8.794;2022-07-06T06:24:01;28.10;58.50
9847;DHT22;4962;50.084;8.794;2022-07-06T06:26:34;27.80;58.90
9847;DHT22;4962;50.084;8.794;2022-07-06T06:29:12;27.40;59.50
9847;DHT22;4962;50.084;8.794;2022-07-06T06:31:44;27.10;60.20
9847;DHT22;4962;50.084;8.794;2022-07-06T06:34:18;26.90;60.80
9847;DHT22;4962;50.084;8.794;2022-07-06T06:36:45;26.60;61.30
9847;DHT22;4962;50.084;8.794;2022-07-06T06:39:16;26.40;61.50
9847;DHT22;4962;50.084;8.794;2022-07-06T06:41:44;26.10;62.40
9847;DHT22;4962;50.084;8.794;2022-07-06T06:44:11;26.00;63.90
9847;DHT22;4962;50.084;8.794;2022-07-06T06:46:40;25.80;63.70
9847;DHT22;4962;50.084;8.794;2022-07-06T06:49:13;25.60;64.10
9847;DHT22;4962;50.084;8.794;2022-07-06T06:51:40;25.50;64.70
9847;DHT22;4962;50.084;8.794;2022-07-06T06:54:07;25.40;65.10
9847;DHT22;4962;50.084;8.794;2022-07-06T06:56:34;25.30;65.50
9847;DHT22;4962;50.084;8.794;2022-07-06T06:59:06;25.30;65.80
9847;DHT22;4962;50.084;8.794;2022-07-06T07:01:38;25.20;66.00
9847;DHT22;4962;50.084;8.794;2022-07-06T07:04:13;25.20;66.30
9847;DHT22;4962;50.084;8.794;2022-07-06T07:06:46;25.20;66.30
9847;DHT22;4962;50.084;8.794;2022-07-06T07:09:15;25.20;66.30
9847;DHT22;4962;50.084;8.794;2022-07-06T07:11:42;25.20;66.20
9847;DHT22;4962;50.084;8.794;2022-07-06T07:14:21;25.10;65.60
9847;DHT22;4962;50.084;8.794;2022-07-06T07:16:55;25.20;65.20
9847;DHT22;4962;50.084;8.794;2022-07-06T07:19:45;25.10;64.70
9847;DHT22;4962;50.084;8.794;2022-07-06T07:22:12;25.10;65.20
9847;DHT22;4962;50.084;8.794;2022-07-06T07:24:40;25.10;65.30
9847;DHT22;4962;50.084;8.794;2022-07-06T07:27:07;25.20;65.00
9847;DHT22;4962;50.084;8.794;2022-07-06T07:29:36;25.20;64.90
9847;DHT22;4962;50.084;8.794;2022-07-06T07:32:05;25.30;64.30
9847;DHT22;4962;50.084;8.794;2022-07-06T07:34:32;25.30;64.00
9847;DHT22;4962;50.084;8.794;2022-07-06T07:36:59;25.40;63.70
9847;DHT22;4962;50.084;8.794;2022-07-06T07:39:26;25.50;63.40
9847;DHT22;4962;50.084;8.794;2022-07-06T07:41:53;25.50;62.60
9847;DHT22;4962;50.084;8.794;2022-07-06T07:44:20;25.60;62.60
9847;DHT22;4962;50.084;8.794;2022-07-06T07:46:49;25.60;62.00
9847;DHT22;4962;50.084;8.794;2022-07-06T07:49:23;25.70;61.50
9847;DHT22;4962;50.084;8.794;2022-07-06T07:51:50;25.70;61.80
9847;DHT22;4962;50.084;8.794;2022-07-06T07:54:17;25.80;62.10
9847;DHT22;4962;50.084;8.794;2022-07-06T07:56:46;25.90;62.20
9847;DHT22;4962;50.084;8.794;2022-07-06T07:59:13;26.10;61.50
9847;DHT22;4962;50.084;8.794;2022-07-06T08:01:40;26.30;61.40
9847;DHT22;4962;50.084;8.794;2022-07-06T08:04:08;26.40;61.50
9847;DHT22;4962;50.084;8.794;2022-07-06T08:06:35;26.70;61.60
9847;DHT22;4962;50.084;8.794;2022-07-06T08:09:03;27.10;60.40
9847;DHT22;4962;50.084;8.794;2022-07-06T08:11:32;27.40;60.60
9847;DHT22;4962;50.084;8.794;2022-07-06T08:14:00;27.70;59.50
9847;DHT22;4962;50.084;8.794;2022-07-06T08:16:26;28.10;59.00
9847;DHT22;4962;50.084;8.794;2022-07-06T08:18:53;28.50;57.80
9847;DHT22;4962;50.084;8.794;2022-07-06T08:21:24;28.80;57.70
9847;DHT22;4962;50.084;8.794;2022-07-06T08:23:51;29.30;58.00
9847;DHT22;4962;50.084;8.794;2022-07-06T08:26:18;30.00;57.30
9847;DHT22;4962;50.084;8.794;2022-07-06T08:28:45;30.60;54.80
9847;DHT22;4962;50.084;8.794;2022-07-06T08:31:14;30.90;52.90
9847;DHT22;4962;50.084;8.794;2022-07-06T08:33:51;30.90;51.10
9847;DHT22;4962;50.084;8.794;2022-07-06T08:36:36;30.70;49.70
9847;DHT22;4962;50.084;8.794;2022-07-06T08:39:12;30.20;49.10
9847;DHT22;4962;50.084;8.794;2022-07-06T08:41:43;29.80;49.10
9847;DHT22;4962;50.084;8.794;2022-07-06T08:44:13;29.20;49.50
9847;DHT22;4962;50.084;8.794;2022-07-06T08:46:40;28.80;49.90
9847;DHT22;4962;50.084;8.794;2022-07-06T08:49:08;28.40;50.40
9847;DHT22;4962;50.084;8.794;2022-07-06T08:51:40;28.10;51.30
9847;DHT22;4962;50.084;8.794;2022-07-06T08:54:16;27.90;51.70
9847;DHT22;4962;50.084;8.794;2022-07-06T08:56:45;27.80;51.10
9847;DHT22;4962;50.084;8.794;2022-07-06T08:59:19;27.70;51.10
9847;DHT22;4962;50.084;8.794;2022-07-06T09:01:46;27.60;51.00
9847;DHT22;4962;50.084;8.794;2022-07-06T09:04:15;27.40;51.20
9847;DHT22;4962;50.084;8.794;2022-07-06T09:06:46;27.20;51.50
9847;DHT22;4962;50.084;8.794;2022-07-06T09:09:18;27.10;51.90
9847;DHT22;4962;50.084;8.794;2022-07-06T09:11:46;26.90;51.80
9847;DHT22;4962;50.084;8.794;2022-07-06T09:14:16;26.70;51.80
9847;DHT22;4962;50.084;8.794;2022-07-06T09:16:45;26.50;52.00
9847;DHT22;4962;50.084;8.794;2022-07-06T09:19:13;26.40;52.70
9847;DHT22;4962;50.084;8.794;2022-07-06T09:21:41;26.40;53.30
9847;DHT22;4962;50.084;8.794;2022-07-06T09:24:11;26.30;53.00
9847;DHT22;4962;50.084;8.794;2022-07-06T09:26:38;26.20;53.00
9847;DHT22;4962;50.084;8.794;2022-07-06T09:29:13;26.20;53.10
9847;DHT22;4962;50.084;8.794;2022-07-06T09:31:41;26.20;53.50
9847;DHT22;4962;50.084;8.794;2022-07-06T09:34:09;26.20;53.50
9847;DHT22;4962;50.084;8.794;2022-07-06T09:36:42;26.20;53.30
9847;DHT22;4962;50.084;8.794;2022-07-06T09:39:19;26.20;53.30
9847;DHT22;4962;50.084;8.794;2022-07-06T09:41:46;26.20;53.30
9847;DHT22;4962;50.084;8.794;2022-07-06T09:44:18;26.30;53.30
9847;DHT22;4962;50.084;8.794;2022-07-06T09:46:48;26.30;53.20
9847;DHT22;4962;50.084;8.794;2022-07-06T09:49:21;26.40;53.20
9847;DHT22;4962;50.084;8.794;2022-07-06T09:52:03;26.40;53.30
9847;DHT22;4962;50.084;8.794;2022-07-06T09:54:38;26.50;53.30
9847;DHT22;4962;50.084;8.794;2022-07-06T09:57:08;26.50;53.30
9847;DHT22;4962;50.084;8.794;2022-07-06T09:59:35;26.50;52.70
9847;DHT22;4962;50.084;8.794;2022-07-06T10:02:06;26.60;52.50
9847;DHT22;4962;50.084;8.794;2022-07-06T10:04:34;26.60;52.30
9847;DHT22;4962;50.084;8.794;2022-07-06T10:07:04;26.70;52.00
9847;DHT22;4962;50.084;8.794;2022-07-06T10:09:49;26.70;51.80
9847;DHT22;4962;50.084;8.794;2022-07-06T10:12:18;26.70;51.70
9847;DHT22;4962;50.084;8.794;2022-07-06T10:14:46;26.70;51.60
9847;DHT22;4962;50.084;8.794;2022-07-06T10:17:14;26.70;51.50
9847;DHT22;4962;50.084;8.794;2022-07-06T10:19:41;26.70;51.60
9847;DHT22;4962;50.084;8.794;2022-07-06T10:22:09;26.70;51.40
9847;DHT22;4962;50.084;8.794;2022-07-06T10:24:36;26.70;51.50
9847;DHT22;4962;50.084;8.794;2022-07-06T10:27:10;26.60;51.50
9847;DHT22;4962;50.084;8.794;2022-07-06T10:29:38;26.60;51.60
9847;DHT22;4962;50.084;8.794;2022-07-06T10:32:06;26.50;51.80
9847;DHT22;4962;50.084;8.794;2022-07-06T10:34:45;26.40;51.30
9847;DHT22;4962;50.084;8.794;2022-07-06T10:37:22;26.40;51.10
9847;DHT22;4962;50.084;8.794;2022-07-06T10:39:51;26.30;51.10
9847;DHT22;4962;50.084;8.794;2022-07-06T10:42:44;26.30;51.20
9847;DHT22;4962;50.084;8.794;2022-07-06T10:45:18;26.20;51.60
9847;DHT22;4962;50.084;8.794;2022-07-06T10:47:46;26.20;52.10
9847;DHT22;4962;50.084;8.794;2022-07-06T10:50:13;26.30;52.30
9847;DHT22;4962;50.084;8.794;2022-07-06T10:52:51;26.40;52.70
9847;DHT22;4962;50.084;8.794;2022-07-06T10:55:29;26.40;52.30
9847;DHT22;4962;50.084;8.794;2022-07-06T10:57:58;26.40;51.70
9847;DHT22;4962;50.084;8.794;2022-07-06T11:00:51;26.50;51.70
9847;DHT22;4962;50.084;8.794;2022-07-06T11:03:40;26.50;51.80
9847;DHT22;4962;50.084;8.794;2022-07-06T11:06:11;26.50;52.00
9847;DHT22;4962;50.084;8.794;2022-07-06T11:08:46;26.50;51.80
9847;DHT22;4962;50.084;8.794;2022-07-06T11:11:16;26.50;52.00
9847;DHT22;4962;50.084;8.794;2022-07-06T11:13:57;26.40;52.10
9847;DHT22;4962;50.084;8.794;2022-07-06T11:16:25;26.40;52.20
9847;DHT22;4962;50.084;8.794;2022-07-06T11:19:01;26.30;52.10
9847;DHT22;4962;50.084;8.794;2022-07-06T11:22:04;26.30;52.00
9847;DHT22;4962;50.084;8.794;2022-07-06T11:24:36;26.20;51.90
9847;DHT22;4962;50.084;8.794;2022-07-06T11:27:04;26.10;51.70
9847;DHT22;4962;50.084;8.794;2022-07-06T11:29:34;26.00;51.80
9847;DHT22;4962;50.084;8.794;2022-07-06T11:32:03;26.00;51.90
9847;DHT22;4962;50.084;8.794;2022-07-06T11:34:32;25.90;51.90
9847;DHT22;4962;50.084;8.794;2022-07-06T11:37:01;25.90;52.10
9847;DHT22;4962;50.084;8.794;2022-07-06T11:39:28;25.80;52.20
9847;DHT22;4962;50.084;8.794;2022-07-06T11:41:55;25.90;52.30
9847;DHT22;4962;50.084;8.794;2022-07-06T11:44:22;25.90;52.20
9847;DHT22;4962;50.084;8.794;2022-07-06T11:46:51;26.00;52.00
9847;DHT22;4962;50.084;8.794;2022-07-06T11:49:20;26.00;52.10
9847;DHT22;4962;50.084;8.794;2022-07-06T11:51:47;26.00;52.00
9847;DHT22;4962;50.084;8.794;2022-07-06T11:54:15;26.00;51.90
9847;DHT22;4962;50.084;8.794;2022-07-06T11:56:46;25.90;51.70
9847;DHT22;4962;50.084;8.794;2022-07-06T11:59:15;25.90;51.70
9847;DHT22;4962;50.084;8.794;2022-07-06T12:01:42;25.90;51.70
9847;DHT22;4962;50.084;8.794;2022-07-06T12:04:12;25.90;51.60
9847;DHT22;4962;50.084;8.794;2022-07-06T12:06:39;26.00;51.40
9847;DHT22;4962;50.084;8.794;2022-07-06T12:09:06;26.00;51.10
9847;DHT22;4962;50.084;8.794;2022-07-06T12:11:35;25.90;50.90
9847;DHT22;4962;50.084;8.794;2022-07-06T12:14:11;25.90;51.10
9847;DHT22;4962;50.084;8.794;2022-07-06T12:16:39;25.80;51.20
9847;DHT22;4962;50.084;8.794;2022-07-06T12:19:06;25.80;51.30
9847;DHT22;4962;50.084;8.794;2022-07-06T12:21:35;25.80;51.40
9847;DHT22;4962;50.084;8.794;2022-07-06T12:24:06;25.70;51.70
9847;DHT22;4962;50.084;8.794;2022-07-06T12:26:40;25.80;52.00
9847;DHT22;4962;50.084;8.794;2022-07-06T12:29:08;25.80;52.00
9847;DHT22;4962;50.084;8.794;2022-07-06T12:31:37;25.90;52.10
9847;DHT22;4962;50.084;8.794;2022-07-06T12:34:12;26.00;51.80
9847;DHT22;4962;50.084;8.794;2022-07-06T12:36:44;26.00;51.70
9847;DHT22;4962;50.084;8.794;2022-07-06T12:39:11;26.10;51.60
9847;DHT22;4962;50.084;8.794;2022-07-06T12:41:45;26.20;51.70
9847;DHT22;4962;50.084;8.794;2022-07-06T12:44:12;26.20;51.70
9847;DHT22;4962;50.084;8.794;2022-07-06T12:46:40;26.30;51.90
9847;DHT22;4962;50.084;8.794;2022-07-06T12:49:13;26.30;52.00
9847;DHT22;4962;50.084;8.794;2022-07-06T12:51:59;26.40;52.00
9847;DHT22;4962;50.084;8.794;2022-07-06T12:54:29;26.40;52.10
9847;DHT22;4962;50.084;8.794;2022-07-06T12:57:08;26.40;52.10
9847;DHT22;4962;50.084;8.794;2022-07-06T12:59:39;26.40;52.00
9847;DHT22;4962;50.084;8.794;2022-07-06T13:02:07;26.40;51.70
9847;DHT22;4962;50.084;8.794;2022-07-06T13:04:35;26.40;51.60
9847;DHT22;4962;50.084;8.794;2022-07-06T13:07:04;26.40;51.50
9847;DHT22;4962;50.084;8.794;2022-07-06T13:09:32;26.40;51.30
9847;DHT22;4962;50.084;8.794;2022-07-06T13:12:02;26.40;51.20
9847;DHT22;4962;50.084;8.794;2022-07-06T13:14:37;26.40;51.20
9847;DHT22;4962;50.084;8.794;2022-07-06T13:17:15;26.40;51.20
9847;DHT22;4962;50.084;8.794;2022-07-06T13:19:51;26.40;51.20
9847;DHT22;4962;50.084;8.794;2022-07-06T13:22:42;26.40;51.40
9847;DHT22;4962;50.084;8.794;2022-07-06T13:25:19;26.40;51.40
9847;DHT22;4962;50.084;8.794;2022-07-06T13:27:46;26.40;51.50
9847;DHT22;4962;50.084;8.794;2022-07-06T13:30:13;26.30;51.60
9847;DHT22;4962;50.084;8.794;2022-07-06T13:32:41;26.30;51.80
9847;DHT22;4962;50.084;8.794;2022-07-06T13:35:08;26.30;51.90
9847;DHT22;4962;50.084;8.794;2022-07-06T13:37:36;26.20;51.60
9847;DHT22;4962;50.084;8.794;2022-07-06T13:40:04;26.20;51.70
9847;DHT22;4962;50.084;8.794;2022-07-06T13:42:31;26.20;51.70
9847;DHT22;4962;50.084;8.794;2022-07-06T13:44:58;26.20;51.70
9847;DHT22;4962;50.084;8.794;2022-07-06T13:47:32;26.20;51.70
9847;DHT22;4962;50.084;8.794;2022-07-06T13:50:00;26.20;51.90
9847;DHT22;4962;50.084;8.794;2022-07-06T13:52:27;26.20;52.00
9847;DHT22;4962;50.084;8.794;2022-07-06T13:54:56;26.20;52.00
9847;DHT22;4962;50.084;8.794;2022-07-06T13:57:23;26.20;52.20
9847;DHT22;4962;50.084;8.794;2022-07-06T13:59:49;26.30;52.40
9847;DHT22;4962;50.084;8.794;2022-07-06T14:02:17;26.30;52.20
9847;DHT22;4962;50.084;8.794;2022-07-06T14:04:44;26.30;51.90
9847;DHT22;4962;50.084;8.794;2022-07-06T14:07:19;26.30;52.10
9847;DHT22;4962;50.084;8.794;2022-07-06T14:09:51;26.30;52.10
9847;DHT22;4962;50.084;8.794;2022-07-06T14:12:24;26.30;52.00
9847;DHT22;4962;50.084;8.794;2022-07-06T14:15:04;26.30;52.00
9847;DHT22;4962;50.084;8.794;2022-07-06T14:17:33;26.40;51.80
9847;DHT22;4962;50.084;8.794;2022-07-06T14:20:01;26.40;51.90
9847;DHT22;4962;50.084;8.794;2022-07-06T14:22:28;26.40;52.10
9847;DHT22;4962;50.084;8.794;2022-07-06T14:25:01;26.30;51.60
9847;DHT22;4962;50.084;8.794;2022-07-06T14:27:29;26.30;51.40
9847;DHT22;4962;50.084;8.794;2022-07-06T14:29:56;26.30;51.20
9847;DHT22;4962;50.084;8.794;2022-07-06T14:32:27;26.30;51.20
9847;DHT22;4962;50.084;8.794;2022-07-06T14:35:13;26.30;51.20
9847;DHT22;4962;50.084;8.794;2022-07-06T14:37:50;26.30;51.30
9847;DHT22;4962;50.084;8.794;2022-07-06T14:40:26;26.30;51.20
9847;DHT22;4962;50.084;8.794;2022-07-06T14:43:18;26.30;51.20
9847;DHT22;4962;50.084;8.794;2022-07-06T14:46:03;26.40;51.20
9847;DHT22;4962;50.084;8.794;2022-07-06T14:48:31;26.40;51.30
9847;DHT22;4962;50.084;8.794;2022-07-06T14:51:01;26.40;51.30
9847;DHT22;4962;50.084;8.794;2022-07-06T14:53:30;26.40;51.30
9847;DHT22;4962;50.084;8.794;2022-07-06T14:55:57;26.40;51.40
9847;DHT22;4962;50.084;8.794;2022-07-06T14:58:26;26.40;51.40
9847;DHT22;4962;50.084;8.794;2022-07-06T15:00:53;26.40;51.40
9847;DHT22;4962;50.084;8.794;2022-07-06T15:03:20;26.40;51.50
9847;DHT22;4962;50.084;8.794;2022-07-06T15:05:47;26.30;51.30
9847;DHT22;4962;50.084;8.794;2022-07-06T15:08:14;26.30;51.30
9847;DHT22;4962;50.084;8.794;2022-07-06T15:10:43;26.30;51.50
9847;DHT22;4962;50.084;8.794;2022-07-06T15:13:10;26.20;51.60
9847;DHT22;4962;50.084;8.794;2022-07-06T15:15:39;26.20;51.90
9847;DHT22;4962;50.084;8.794;2022-07-06T15:18:06;26.20;51.90
9847;DHT22;4962;50.084;8.794;2022-07-06T15:20:33;26.30;52.00
9847;DHT22;4962;50.084;8.794;2022-07-06T15:23:00;26.30;51.80
9847;DHT22;4962;50.084;8.794;2022-07-06T15:25:27;26.30;51.40
9847;DHT22;4962;50.084;8.794;2022-07-06T15:27:54;26.40;51.00
9847;DHT22;4962;50.084;8.794;2022-07-06T15:30:21;26.30;50.90
9847;DHT22;4962;50.084;8.794;2022-07-06T15:32:50;26.30;51.00
9847;DHT22;4962;50.084;8.794;2022-07-06T15:35:17;26.20;50.90
9847;DHT22;4962;50.084;8.794;2022-07-06T15:37:44;26.10;51.10
9847;DHT22;4962;50.084;8.794;2022-07-06T15:40:11;26.10;51.50
9847;DHT22;4962;50.084;8.794;2022-07-06T15:42:40;26.00;51.60
9847;DHT22;4962;50.084;8.794;2022-07-06T15:45:08;26.00;51.80
9847;DHT22;4962;50.084;8.794;2022-07-06T15:47:35;26.00;51.80
9847;DHT22;4962;50.084;8.794;2022-07-06T15:50:04;26.00;51.60
9847;DHT22;4962;50.084;8.794;2022-07-06T15:52:31;25.90;51.50
9847;DHT22;4962;50.084;8.794;2022-07-06T15:54:58;25.80;51.70
9847;DHT22;4962;50.084;8.794;2022-07-06T15:57:25;25.80;52.00
9847;DHT22;4962;50.084;8.794;2022-07-06T15:59:52;25.70;52.10
9847;DHT22;4962;50.084;8.794;2022-07-06T16:02:19;25.70;52.30
9847;DHT22;4962;50.084;8.794;2022-07-06T16:04:46;25.70;52.30
9847;DHT22;4962;50.084;8.794;2022-07-06T16:07:14;25.60;52.40
9847;DHT22;4962;50.084;8.794;2022-07-06T16:09:41;25.60;52.40
9847;DHT22;4962;50.084;8.794;2022-07-06T16:12:08;25.50;52.80
9847;DHT22;4962;50.084;8.794;2022-07-06T16:14:35;25.40;53.00
9847;DHT22;4962;50.084;8.794;2022-07-06T16:17:02;25.40;53.20